< < Back
Terminal Aerodrome Forecast


Current Version              Previous Versions:   1  2  3  4  5  6  7  8  9  

Terminal Aerodrome Forecast

795
FTUS42 KTAE 251734
TAFTLH
TAF
KTLH 251734Z 2518/2618 10010KT P6SM SCT040
     FM260200 VRB03KT P6SM SCT250=

Latest METAR

413
SAUS80 KWBC 260800 RRA
MTRTLH
METAR KTLH 260753Z AUTO 10004KT 10SM FEW120 26/24 A3002 RMK AO2 SLP165
T02610239


USA.gov is the U.S. government's official web portal to all federal, state and local government web resources and services.